Brandeis, California
Current Conditions -  °F | °C
As of 8:51 PM on Monday 20 Oct 2014 (Local Time) from KVNY Reporting Station
Clear Clear  
Wind Chill: 68°   Ceiling: Unl
Heat Index: 68°   Visibility: 10mi
Dew Point: 56°   Wind: 0mph
Humidity: 65%   Direction: NA
Pressure: 29.89"   Gusts: NA
Location:  34.23°N, 118.72°W
Report Text: KVNY 210351Z 00000KT 10SM CLR 20/13 A2989 RMK AO2 SLP117 T02000133
Loading
Personal Weather Stations






























Interactive Weather Map
Tropical Storm Tracking
New forecast layout! Learn more

10-Day Weather Forecast

Advertisements
Track Severe Weather on mobile